EST,Max TemperatureF,Mean TemperatureF,Min TemperatureF,Max Dew PointF,MeanDew PointF,Min DewpointF,Max Humidity, Mean Humidity, Min Humidity, Max Sea Level PressureIn, Mean Sea Level PressureIn, Min Sea Level PressureIn, Max VisibilityMiles, Mean VisibilityMiles, Min VisibilityMiles, Max Wind SpeedMPH, Mean Wind SpeedMPH, Max Gust SpeedMPH,PrecipitationIn, CloudCover, Events, WindDirDegrees
2013-2-1,34,30,25,20,12,5,77,49,30,30.25,29.96,29.81,10,10,7,24,13,32,0.00,3,Snow,279
2013-2-2,32,26,20,24,10,4,90,53,32,30.32,30.21,30.07,10,9,2,13,8,20,0.00,3,Snow,263
2013-2-3,32,29,26,25,21,18,93,75,58,30.06,29.90,29.81,10,9,4,10,3,,0.00,6,Snow,307
2013-2-4,32,28,24,22,12,8,73,50,36,29.99,29.95,29.83,10,10,10,22,12,28,0.00,2,Snow,271
2013-2-5,33,30,28,31,27,21,93,85,72,29.98,29.94,29.91,10,7,3,6,2,,0.00,8,Rain-Snow,30
2013-2-6,41,35,30,31,23,8,96,67,37,30.37,30.11,29.93,10,8,2,20,6,25,0.00,4,,298
2013-2-7,35,30,26,25,12,5,67,46,35,30.52,30.44,30.33,10,10,10,13,5,,0.00,2,Snow,65
2013-2-8,37,34,30,35,31,25,94,86,67,30.32,29.94,29.65,10,6,1,22,12,33,0.55,8,Rain-Snow,40
2013-2-9,34,28,22,30,19,9,95,64,40,30.36,30.02,29.77,10,8,0,22,12,34,0.39,3,Snow,311
2013-2-10,37,26,15,23,14,8,76,57,33,30.50,30.41,30.34,10,10,10,12,4,,0.00,0,,275
2013-2-11,43,37,32,42,36,21,99,91,64,30.35,29.95,29.67,10,4,0,10,1,,0.35,7,Fog-Rain,323
2013-2-12,45,40,35,42,28,25,98,60,47,29.98,29.87,29.74,10,10,5,25,10,32,0.00,4,,277
2013-2-13,44,36,29,34,27,24,91,67,48,29.97,29.83,29.69,10,10,5,8,2,,0.01,3,Rain,251
2013-2-14,47,40,33,34,30,23,93,71,39,30.01,29.91,29.72,10,9,5,9,5,,0.00,2,Rain,294
2013-2-15,57,46,34,34,32,28,89,62,37,30.02,29.97,29.91,10,9,4,14,3,18,0.00,3,,263
2013-2-16,42,38,32,35,27,15,90,67,48,29.98,29.89,29.75,10,10,5,15,8,22,0.01,8,Rain-Snow,346
2013-2-17,34,26,20,14,6,0,50,38,30,30.04,29.79,29.69,10,10,10,31,16,45,0.00,4,,310
2013-2-18,37,28,18,13,6,1,51,40,30,30.27,30.19,30.04,10,10,10,24,16,34,0.00,0,Snow,278
2013-2-19,51,40,29,45,29,13,92,66,43,30.22,29.94,29.69,10,9,4,21,4,33,0.16,3,Rain,218
2013-2-20,37,32,27,26,14,10,60,48,38,30.01,29.88,29.75,10,10,10,26,18,38,0.02,3,,283
2013-2-21,37,30,25,15,13,10,62,50,39,30.30,30.09,30.00,10,10,10,30,14,44,0.00,2,Snow,298
2013-2-22,40,32,26,33,23,15,79,66,52,30.41,30.34,30.27,10,10,10,10,6,16,0.00,3,,57
2013-2-23,46,42,38,45,40,34,97,94,79,30.28,30.04,29.81,10,4,1,14,6,21,0.24,8,Rain,82
2013-2-24,50,42,34,39,32,22,95,73,51,29.99,29.83,29.76,10,9,3,23,9,30,0.00,5,,315
2013-2-25,46,38,31,29,26,22,78,60,45,30.25,30.13,29.99,10,10,10,12,7,9,0.00,4,,309
2013-2-26,45,39,33,36,31,28,90,71,60,30.29,30.19,29.87,10,10,4,22,7,29,0.11,4,Rain,90
2013-2-27,50,44,39,47,40,37,96,87,70,29.87,29.63,29.50,10,6,2,22,13,28,0.88,7,Rain,4
2013-2-28,50,44,38,39,34,28,80,65,49,29.63,29.60,29.56,10,10,10,14,5,17,0.00,7,,277